Time;durP1;ratioP1;P1;durP2;ratioP2;P2;SDS_P1;SDS_P2;PMS_P1;PMS_P2;Temp;Humidity;BMP_temperature;BMP_pressure;BME280_temperature;BME280_humidity;BME280_pressure;Samples;Min_cycle;Max_cycle;Signal;HPM_P1;HPM_P2
2023/02/21 02:15:35;;;;;;;8.68;2.38;;;8.60;99.90;;;;;;5036186;28;20025;-75
2023/02/21 02:18:25;;;;;;;5.35;2.20;;;8.60;99.90;;;;;;4984707;28;20049;-74
2023/02/21 02:20:57;;;;;;;8.15;2.30;;;8.70;99.90;;;;;;5034800;28;20077;-76
2023/02/21 02:23:57;;;;;;;8.38;2.20;;;8.60;99.90;;;;;;5039507;28;20035;-76
2023/02/21 02:26:35;;;;;;;6.90;2.30;;;8.60;99.90;;;;;;5036099;28;20026;-76
2023/02/21 02:29:09;;;;;;;8.38;2.60;;;8.60;99.90;;;;;;5038670;28;20082;-76
2023/02/21 02:32:22;;;;;;;9.60;2.53;;;8.60;99.90;;;;;;5039954;28;20035;-76
2023/02/21 02:35:07;;;;;;;6.28;1.88;;;8.60;99.90;;;;;;5034877;28;20029;-76
2023/02/21 02:37:54;;;;;;;6.07;1.92;;;8.60;99.90;;;;;;5034805;28;20028;-74
2023/02/21 02:40:33;;;;;;;5.25;2.00;;;8.60;99.90;;;;;;5037340;28;20025;-75
2023/02/21 02:43:26;;;;;;;6.28;1.92;;;8.60;99.90;;;;;;5027895;28;20047;-76
2023/02/21 02:46:07;;;;;;;3.95;1.77;;;8.60;99.90;;;;;;5037806;28;20108;-76
2023/02/21 02:48:35;;;;;;;;;;;8.60;99.90;;;;;;5034294;28;20106;-73
2023/02/21 02:51:06;;;;;;;4.63;1.65;;;8.60;99.90;;;;;;5034383;28;19916;-75
2023/02/21 02:53:32;;;;;;;7.38;1.95;;;8.60;99.90;;;;;;5035722;28;20112;-76
2023/02/21 02:56:00;;;;;;;4.00;2.10;;;8.60;99.90;;;;;;5036927;28;20174;-75
2023/02/21 02:58:30;;;;;;;6.70;2.40;;;8.60;99.90;;;;;;5020604;28;20053;-76
2023/02/21 03:01:05;;;;;;;3.92;1.77;;;8.60;99.90;;;;;;5032206;28;20047;-75
2023/02/21 03:03:37;;;;;;;5.30;1.80;;;8.50;99.90;;;;;;5031579;28;20045;-76
2023/02/21 03:06:20;;;;;;;6.45;1.88;;;8.60;99.90;;;;;;5035055;28;20468;-76
2023/02/21 03:08:54;;;;;;;6.55;1.80;;;8.60;99.90;;;;;;5036442;28;20594;-75
2023/02/21 03:11:24;;;;;;;3.70;1.73;;;8.60;99.90;;;;;;5036403;28;20080;-76
2023/02/21 03:14:04;;;;;;;4.20;1.42;;;8.60;99.90;;;;;;5031569;28;20041;-76
2023/02/21 03:16:41;;;;;;;3.55;1.90;;;8.60;99.90;;;;;;5033912;28;20036;-75
2023/02/21 03:19:29;;;;;;;7.55;2.03;;;8.60;99.90;;;;;;5035668;28;20572;-76
2023/02/21 03:22:00;;;;;;;5.57;2.10;;;8.60;99.90;;;;;;5036738;28;20067;-76
2023/02/21 03:24:27;;;;;;;6.53;1.98;;;8.50;99.90;;;;;;5034444;28;20045;-76
2023/02/21 03:26:58;;;;;;;6.05;1.88;;;8.50;99.90;;;;;;5032274;28;20104;-76
2023/02/21 03:29:24;;;;;;;5.55;1.70;;;8.50;99.90;;;;;;5034822;28;20025;-75
2023/02/21 03:34:39;;;;;;;5.32;1.50;;;8.60;99.90;;;;;;5033031;28;20033;-76
2023/02/21 03:37:08;;;;;;;5.90;2.13;;;8.50;99.90;;;;;;5034034;28;20029;-76
2023/02/21 03:39:34;;;;;;;5.97;1.95;;;8.50;99.90;;;;;;5036173;28;20048;-76
2023/02/21 03:42:00;;;;;;;2.75;1.52;;;8.50;99.90;;;;;;5033804;28;20654;-75
2023/02/21 03:44:25;;;;;;;4.10;1.85;;;8.50;99.90;;;;;;5034474;28;20040;-76
2023/02/21 03:46:51;;;;;;;4.75;1.75;;;8.50;99.90;;;;;;5037166;28;20103;-76
2023/02/21 03:49:17;;;;;;;2.78;1.42;;;8.50;99.90;;;;;;5032630;28;20037;-76
2023/02/21 03:51:42;;;;;;;3.47;1.90;;;8.50;99.90;;;;;;5032893;28;20064;-75
2023/02/21 03:54:08;;;;;;;4.85;2.08;;;8.50;99.90;;;;;;5037562;28;20025;-75
2023/02/21 03:56:36;;;;;;;4.25;2.47;;;8.50;99.90;;;;;;5035887;28;20171;-74
2023/02/21 03:59:02;;;;;;;2.65;1.85;;;8.50;99.90;;;;;;5037365;28;20441;-76
2023/02/21 04:01:28;;;;;;;6.00;2.20;;;8.50;99.90;;;;;;5033541;28;20021;-76
2023/02/21 04:03:53;;;;;;;4.05;1.77;;;8.50;99.90;;;;;;5032871;28;20036;-76
2023/02/21 04:06:19;;;;;;;5.30;2.10;;;8.50;99.90;;;;;;5035506;28;20030;-76
2023/02/21 04:08:45;;;;;;;3.42;1.98;;;8.50;99.90;;;;;;5033845;28;20100;-76
2023/02/21 04:11:10;;;;;;;18.45;2.63;;;8.50;99.90;;;;;;5034230;28;20029;-76
2023/02/21 04:13:36;;;;;;;6.95;2.47;;;8.40;99.90;;;;;;5034980;28;20026;-76
2023/02/21 04:16:02;;;;;;;5.93;2.05;;;8.40;99.90;;;;;;5035126;28;20323;-75
2023/02/21 04:18:28;;;;;;;5.50;2.30;;;8.40;99.90;;;;;;5034122;28;20063;-76
2023/02/21 04:20:53;;;;;;;6.00;2.40;;;8.40;99.90;;;;;;5053696;28;20560;-75
2023/02/21 04:23:20;;;;;;;6.22;2.20;;;8.40;99.90;;;;;;5035982;28;21288;-75
2023/02/21 04:25:47;;;;;;;7.65;2.25;;;8.40;99.90;;;;;;5037180;28;20033;-76
2023/02/21 04:28:12;;;;;;;6.57;2.40;;;8.40;99.90;;;;;;5035370;28;20025;-76
2023/02/21 04:30:38;;;;;;;4.68;1.98;;;8.40;99.90;;;;;;5034981;28;20029;-76
2023/02/21 04:33:04;;;;;;;9.70;2.20;;;8.30;99.90;;;;;;5034654;28;20029;-75
2023/02/21 04:35:30;;;;;;;9.02;2.50;;;8.30;99.90;;;;;;5034367;28;20600;-76
2023/02/21 04:37:55;;;;;;;9.80;2.00;;;8.30;99.90;;;;;;5040702;28;20072;-76
2023/02/21 04:40:21;;;;;;;14.07;2.10;;;8.20;99.90;;;;;;5037085;28;20037;-74
2023/02/21 04:42:47;;;;;;;23.52;3.42;;;8.10;99.90;;;;;;5032410;28;20087;-75
2023/02/21 04:45:13;;;;;;;19.58;2.40;;;8.00;99.90;;;;;;5038077;28;20047;-76
2023/02/21 04:47:38;;;;;;;17.10;2.30;;;7.90;99.90;;;;;;5041153;28;20096;-75
2023/02/21 04:50:04;;;;;;;19.80;2.55;;;7.80;99.90;;;;;;5038453;28;20459;-75
2023/02/21 04:52:30;;;;;;;15.27;2.60;;;7.80;99.90;;;;;;5040396;28;20112;-76
2023/02/21 04:54:56;;;;;;;23.20;3.50;;;7.70;99.90;;;;;;5041139;28;21586;-76
2023/02/21 04:57:22;;;;;;;17.73;2.90;;;7.70;99.90;;;;;;5037549;28;20029;-76
2023/02/21 04:59:47;;;;;;;14.88;3.35;;;7.60;99.90;;;;;;5033876;28;20037;-76
2023/02/21 05:02:14;;;;;;;21.30;3.38;;;7.60;99.90;;;;;;5040244;28;20025;-76
2023/02/21 05:04:41;;;;;;;25.15;3.00;;;7.60;99.90;;;;;;5038205;28;20083;-76
2023/02/21 05:07:08;;;;;;;18.05;3.38;;;7.60;99.90;;;;;;5040488;28;20137;-76
2023/02/21 05:09:35;;;;;;;17.83;3.15;;;7.60;99.90;;;;;;5025333;28;20104;-75
2023/02/21 05:12:01;;;;;;;26.05;3.42;;;7.60;99.90;;;;;;5040084;28;20051;-74
2023/02/21 05:14:26;;;;;;;18.55;3.63;;;7.70;99.90;;;;;;5038885;28;20026;-75
2023/02/21 05:16:52;;;;;;;27.67;3.60;;;7.60;99.90;;;;;;5038869;28;20481;-76
2023/02/21 05:19:26;;;;;;;16.63;3.15;;;7.60;99.90;;;;;;5030195;28;20678;-75
2023/02/21 05:21:54;;;;;;;21.35;3.28;;;7.60;99.90;;;;;;5031213;28;20116;-75
2023/02/21 05:24:20;;;;;;;17.80;3.40;;;7.70;99.90;;;;;;5037531;28;20085;-76
2023/02/21 05:26:46;;;;;;;22.35;3.30;;;7.60;99.90;;;;;;5034954;28;20481;-74
2023/02/21 05:29:12;;;;;;;21.40;3.67;;;7.70;99.90;;;;;;5017672;28;20191;-76
2023/02/21 05:31:37;;;;;;;24.27;3.53;;;7.70;99.90;;;;;;5038296;28;21221;-76
2023/02/21 05:34:03;;;;;;;26.42;3.70;;;7.70;99.90;;;;;;5038312;28;20032;-75
2023/02/21 05:36:38;;;;;;;24.95;3.42;;;7.70;99.90;;;;;;5035872;28;20059;-76
2023/02/21 05:39:06;;;;;;;22.50;2.85;;;7.70;99.90;;;;;;5036742;28;20044;-75
2023/02/21 05:41:31;;;;;;;18.08;3.05;;;7.70;99.90;;;;;;5034905;28;20025;-76
2023/02/21 05:43:58;;;;;;;31.92;3.50;;;7.70;99.90;;;;;;5039351;28;20025;-75
2023/02/21 05:46:28;;;;;;;21.75;3.08;;;7.70;99.90;;;;;;5045716;28;20039;-75
2023/02/21 05:48:56;;;;;;;18.67;3.10;;;7.70;99.90;;;;;;5037930;28;20033;-75
2023/02/21 05:51:22;;;;;;;22.55;3.00;;;7.70;99.90;;;;;;5036853;28;20028;-76
2023/02/21 05:53:48;;;;;;;18.50;3.05;;;7.70;99.90;;;;;;5036668;28;20032;-75
2023/02/21 05:56:15;;;;;;;22.75;3.38;;;7.60;99.90;;;;;;5036058;28;20412;-75
2023/02/21 05:58:41;;;;;;;15.02;2.88;;;7.60;99.90;;;;;;5035560;28;20496;-76
2023/02/21 06:01:16;;;;;;;14.90;2.63;;;7.60;99.90;;;;;;5036068;28;20038;-75
2023/02/21 06:03:42;;;;;;;21.15;3.42;;;7.60;99.90;;;;;;5046620;28;20033;-75
2023/02/21 06:06:08;;;;;;;23.23;3.75;;;7.70;99.90;;;;;;5036360;28;20030;-75
2023/02/21 06:08:45;;;;;;;28.17;3.35;;;7.60;99.90;;;;;;5038039;28;20036;-76
2023/02/21 06:11:11;;;;;;;17.17;2.70;;;7.60;99.90;;;;;;5034608;28;20476;-75
2023/02/21 06:13:37;;;;;;;23.52;3.55;;;7.60;99.90;;;;;;5036430;28;20044;-76
2023/02/21 06:16:03;;;;;;;15.60;3.28;;;7.70;99.90;;;;;;5040600;28;20033;-76
2023/02/21 06:18:28;;;;;;;19.10;2.97;;;7.70;99.90;;;;;;5038254;28;20037;-76
2023/02/21 06:20:54;;;;;;;20.30;3.20;;;7.60;99.90;;;;;;5040917;28;20032;-76
2023/02/21 06:23:20;;;;;;;22.42;3.13;;;7.70;99.90;;;;;;5038630;28;20061;-76
2023/02/21 06:25:45;;;;;;;17.73;3.63;;;7.70;99.90;;;;;;5041090;28;21000;-78
2023/02/21 06:28:11;;;;;;;27.77;4.15;;;7.80;99.90;;;;;;5040956;28;20687;-77
2023/02/21 06:30:37;;;;;;;19.88;3.38;;;7.80;99.90;;;;;;5040961;28;20029;-76
2023/02/21 06:33:03;;;;;;;16.42;3.38;;;7.70;99.90;;;;;;5031411;28;20021;-76
2023/02/21 06:35:28;;;;;;;19.52;3.17;;;7.70;99.90;;;;;;5035499;28;20123;-74
2023/02/21 06:37:54;;;;;;;19.98;3.85;;;7.70;99.90;;;;;;5031744;28;20048;-76
2023/02/21 06:40:23;;;;;;;20.52;3.05;;;7.70;99.90;;;;;;5040364;28;20044;-75
2023/02/21 06:42:49;;;;;;;21.38;3.25;;;7.70;99.90;;;;;;5036996;28;20374;-74
2023/02/21 06:45:14;;;;;;;21.98;3.15;;;7.70;99.90;;;;;;5033519;28;20048;-74
2023/02/21 06:47:43;;;;;;;24.33;3.40;;;7.70;99.90;;;;;;5038964;28;20418;-74
2023/02/21 06:50:09;;;;;;;24.38;4.07;;;7.70;99.90;;;;;;5032602;28;20056;-76
2023/02/21 06:52:35;;;;;;;23.83;3.72;;;7.70;99.90;;;;;;5036380;28;20033;-75
2023/02/21 06:55:00;;;;;;;23.50;4.28;;;7.70;99.90;;;;;;5036200;28;20056;-75
2023/02/21 06:57:27;;;;;;;23.30;3.88;;;7.80;99.90;;;;;;5037233;28;20104;-75
2023/02/21 06:59:53;;;;;;;27.85;3.67;;;7.80;99.90;;;;;;5034974;28;20120;-75
2023/02/21 07:02:19;;;;;;;21.17;3.20;;;7.80;99.90;;;;;;5035443;28;20551;-75
2023/02/21 07:04:46;;;;;;;25.58;4.32;;;7.80;99.90;;;;;;5019639;28;20037;-74
2023/02/21 07:07:13;;;;;;;24.25;3.60;;;7.80;99.90;;;;;;5037119;28;20025;-74
2023/02/21 07:09:38;;;;;;;22.60;3.58;;;7.80;99.90;;;;;;5038008;28;20025;-74
2023/02/21 07:12:04;;;;;;;18.33;4.15;;;7.80;99.90;;;;;;5036529;28;20087;-74
2023/02/21 07:14:30;;;;;;;24.55;3.53;;;7.80;99.90;;;;;;5035393;28;20116;-74
2023/02/21 07:16:56;;;;;;;28.55;4.18;;;7.80;99.90;;;;;;5017023;28;20029;-74
2023/02/21 07:19:21;;;;;;;20.45;3.42;;;7.90;99.90;;;;;;5035446;28;20028;-74
2023/02/21 07:21:47;;;;;;;24.67;4.05;;;7.90;99.90;;;;;;5034217;28;20083;-74
2023/02/21 07:24:13;;;;;;;26.83;3.67;;;7.90;99.90;;;;;;5034193;28;20579;-74
2023/02/21 07:26:39;;;;;;;24.38;3.38;;;7.90;99.90;;;;;;5037186;28;20029;-74
2023/02/21 07:29:05;;;;;;;26.17;4.78;;;7.90;99.90;;;;;;5037753;28;20104;-74
2023/02/21 07:31:32;;;;;;;24.50;4.35;;;7.90;99.90;;;;;;5044012;28;20025;-74
2023/02/21 07:33:58;;;;;;;16.13;3.45;;;8.00;99.90;;;;;;5037767;28;20029;-74
2023/02/21 07:36:24;;;;;;;26.52;4.00;;;8.00;99.90;;;;;;5038347;28;20106;-74
2023/02/21 07:38:49;;;;;;;17.63;3.58;;;8.00;99.90;;;;;;5025911;28;20029;-74
2023/02/21 07:41:16;;;;;;;18.42;3.63;;;8.00;99.90;;;;;;5034041;28;20025;-74
2023/02/21 07:43:41;;;;;;;27.02;3.80;;;8.00;99.90;;;;;;5037658;28;20037;-74
2023/02/21 07:46:12;;;;;;;24.02;4.55;;;8.00;99.90;;;;;;5037840;28;20033;-75
2023/02/21 07:48:38;;;;;;;20.10;3.72;;;8.10;99.90;;;;;;5018125;28;20037;-75
2023/02/21 07:51:06;;;;;;;25.35;4.35;;;8.10;99.90;;;;;;5020065;28;20094;-75
2023/02/21 07:53:31;;;;;;;21.30;4.25;;;8.10;99.90;;;;;;5036490;28;20025;-75
2023/02/21 07:55:57;;;;;;;24.08;4.05;;;8.10;99.90;;;;;;5036562;28;20466;-75
2023/02/21 07:58:23;;;;;;;19.20;3.63;;;8.10;99.90;;;;;;5026408;28;20064;-75
2023/02/21 08:00:50;;;;;;;20.23;3.63;;;8.10;99.90;;;;;;5038695;28;20048;-75
2023/02/21 08:03:15;;;;;;;21.38;4.90;;;8.10;99.90;;;;;;5038826;28;20036;-75
2023/02/21 08:05:41;;;;;;;19.52;4.05;;;8.10;99.90;;;;;;5038289;28;20812;-75
2023/02/21 08:08:08;;;;;;;25.25;4.05;;;8.10;99.90;;;;;;5041822;28;20607;-75
2023/02/21 08:10:34;;;;;;;21.55;4.25;;;8.10;99.90;;;;;;5038429;28;20544;-75
2023/02/21 08:12:59;;;;;;;28.00;4.18;;;8.10;99.90;;;;;;5042462;28;20032;-75
2023/02/21 08:15:25;;;;;;;21.27;3.75;;;8.20;99.90;;;;;;5024376;28;20133;-74
2023/02/21 08:17:51;;;;;;;22.05;4.13;;;8.20;99.90;;;;;;5044830;28;20035;-75
2023/02/21 08:20:17;;;;;;;18.73;3.70;;;8.20;99.90;;;;;;5035459;28;20033;-75
2023/02/21 08:22:43;;;;;;;26.40;4.75;;;8.30;99.90;;;;;;5022350;28;20033;-74
2023/02/21 08:25:14;;;;;;;19.33;4.00;;;8.30;99.90;;;;;;5033776;28;20092;-74
2023/02/21 08:27:41;;;;;;;22.55;3.67;;;8.30;99.90;;;;;;5038278;28;20560;-75
2023/02/21 08:30:09;;;;;;;19.25;4.13;;;8.40;99.90;;;;;;5034449;28;20029;-75
2023/02/21 08:32:35;;;;;;;24.75;4.40;;;8.40;99.90;;;;;;5041805;28;20106;-75
2023/02/21 08:35:04;;;;;;;19.13;3.85;;;8.50;99.90;;;;;;5041597;28;20037;-74
2023/02/21 08:37:32;;;;;;;19.20;3.78;;;8.50;99.90;;;;;;5041318;28;20053;-75
2023/02/21 08:39:58;;;;;;;17.88;4.10;;;8.50;99.90;;;;;;5039073;28;20040;-75
2023/02/21 08:42:24;;;;;;;20.33;4.78;;;8.50;99.90;;;;;;5040633;28;20021;-75
2023/02/21 08:44:50;;;;;;;21.95;4.03;;;8.50;99.90;;;;;;5022691;28;20064;-74
2023/02/21 08:47:17;;;;;;;20.85;3.53;;;8.50;99.90;;;;;;5042189;28;20465;-73
2023/02/21 08:49:46;;;;;;;20.65;3.45;;;8.40;99.90;;;;;;5039074;28;20408;-74
2023/02/21 08:52:12;;;;;;;22.38;3.42;;;8.50;99.90;;;;;;5037549;28;20036;-75
2023/02/21 08:54:39;;;;;;;20.38;3.22;;;8.50;99.90;;;;;;5021741;28;20032;-75
2023/02/21 08:57:05;;;;;;;27.67;4.13;;;8.60;99.90;;;;;;5025784;28;20079;-75
2023/02/21 08:59:33;;;;;;;22.88;3.30;;;8.60;99.90;;;;;;5041379;28;20072;-74
2023/02/21 09:02:02;;;;;;;21.48;3.63;;;8.60;99.90;;;;;;5040660;28;20056;-74
2023/02/21 09:04:27;;;;;;;24.58;4.30;;;8.70;99.90;;;;;;5040267;28;20465;-74
2023/02/21 09:06:54;;;;;;;16.50;3.30;;;8.80;99.90;;;;;;5040512;28;20096;-74
2023/02/21 09:09:21;;;;;;;21.23;3.65;;;8.70;99.90;;;;;;5039806;28;20574;-74
2023/02/21 09:11:48;;;;;;;21.23;3.63;;;8.80;99.90;;;;;;5039848;28;20404;-74
2023/02/21 09:14:16;;;;;;;18.77;4.03;;;8.80;99.90;;;;;;5039974;28;20512;-74
2023/02/21 09:16:42;;;;;;;19.63;3.80;;;8.90;99.90;;;;;;5040114;28;20045;-75
2023/02/21 09:19:09;;;;;;;16.95;3.65;;;8.90;99.90;;;;;;5040634;28;20103;-75
2023/02/21 09:21:35;;;;;;;17.33;3.10;;;9.00;99.90;;;;;;5037247;28;20530;-75
2023/02/21 09:24:01;;;;;;;21.15;3.53;;;9.00;99.90;;;;;;5042712;28;20025;-74
2023/02/21 09:26:30;;;;;;;16.77;3.70;;;9.00;99.90;;;;;;5038045;28;20362;-75
2023/02/21 09:28:57;;;;;;;19.45;3.95;;;9.00;99.90;;;;;;5043028;28;20104;-75
2023/02/21 09:31:23;;;;;;;20.98;3.42;;;9.00;99.90;;;;;;5039009;28;20026;-75
2023/02/21 09:33:48;;;;;;;15.95;3.00;;;9.00;99.90;;;;;;5038718;28;20029;-74
2023/02/21 09:36:14;;;;;;;21.92;4.00;;;9.00;99.90;;;;;;5041303;28;20033;-74
2023/02/21 09:38:40;;;;;;;20.27;4.32;;;9.00;99.90;;;;;;5040679;28;20029;-75
2023/02/21 09:41:10;;;;;;;21.15;4.22;;;9.00;99.90;;;;;;5037221;28;20076;-75
2023/02/21 09:43:47;;;;;;;20.55;4.03;;;9.00;99.90;;;;;;5038261;28;20540;-75
2023/02/21 09:46:18;;;;;;;18.25;3.15;;;9.00;99.90;;;;;;5038288;28;20052;-75
2023/02/21 09:48:44;;;;;;;19.90;3.53;;;9.10;99.90;;;;;;5041372;28;20096;-75
2023/02/21 09:51:11;;;;;;;21.60;3.92;;;9.00;99.90;;;;;;5040475;28;20025;-75
2023/02/21 09:53:41;;;;;;;22.17;4.38;;;9.10;99.90;;;;;;5039033;28;20084;-74
2023/02/21 09:56:12;;;;;;;20.15;3.15;;;9.20;99.90;;;;;;5038264;28;20429;-75
2023/02/21 09:58:42;;;;;;;25.17;3.78;;;9.20;99.90;;;;;;5039198;28;20113;-75
2023/02/21 10:01:24;;;;;;;16.88;3.45;;;9.20;99.90;;;;;;5038190;28;20053;-75
2023/02/21 10:04:13;;;;;;;19.20;3.63;;;9.30;99.90;;;;;;5038525;28;20064;-75
2023/02/21 10:06:58;;;;;;;15.68;3.05;;;9.40;99.90;;;;;;5041310;28;20138;-75
2023/02/21 10:09:48;;;;;;;19.13;3.30;;;9.40;99.90;;;;;;5044287;28;20055;-75
2023/02/21 10:12:29;;;;;;;17.75;3.72;;;9.50;99.90;;;;;;5040383;28;20056;-75
2023/02/21 10:15:23;;;;;;;18.15;3.05;;;9.40;99.90;;;;;;5036761;28;20045;-75
2023/02/21 10:17:55;;;;;;;15.93;3.15;;;9.50;99.90;;;;;;5046059;28;20033;-75
2023/02/21 10:20:51;;;;;;;24.42;3.33;;;9.50;99.90;;;;;;5038477;28;20029;-75
2023/02/21 10:23:23;;;;;;;14.95;3.15;;;9.60;99.90;;;;;;5041511;28;20029;-74
2023/02/21 10:25:53;;;;;;;19.55;3.00;;;9.50;99.90;;;;;;5036067;28;20116;-75
2023/02/21 10:28:21;;;;;;;18.83;3.50;;;9.60;99.90;;;;;;5038827;28;20033;-75
2023/02/21 10:30:49;;;;;;;18.25;3.20;;;9.60;99.90;;;;;;5028051;28;20026;-75
2023/02/21 10:33:15;;;;;;;16.75;3.10;;;9.70;99.90;;;;;;5022880;28;20031;-75
2023/02/21 10:35:41;;;;;;;20.63;4.10;;;9.70;99.90;;;;;;5038586;28;20036;-75
2023/02/21 10:38:12;;;;;;;19.25;3.30;;;9.80;99.90;;;;;;5038414;28;20516;-75
2023/02/21 10:40:58;;;;;;;16.27;3.47;;;9.80;99.90;;;;;;5037676;28;20061;-75
2023/02/21 10:43:43;;;;;;;19.60;3.13;;;10.00;99.90;;;;;;5040053;28;20103;-75
2023/02/21 10:46:44;;;;;;;21.92;3.67;;;10.00;99.90;;;;;;5021113;28;20022;-74
2023/02/21 10:49:28;;;;;;;21.17;4.25;;;10.00;99.90;;;;;;5039628;28;20021;-75
2023/02/21 10:52:13;;;;;;;17.00;3.30;;;10.00;99.90;;;;;;5035763;28;20083;-75
2023/02/21 10:54:39;;;;;;;14.73;2.92;;;10.20;99.90;;;;;;5037875;28;20025;-75
2023/02/21 10:57:15;;;;;;;16.10;3.05;;;10.20;99.90;;;;;;5038065;28;20041;-75
2023/02/21 10:59:42;;;;;;;16.38;3.42;;;10.30;99.90;;;;;;5038206;28;20391;-75
2023/02/21 11:02:29;;;;;;;14.77;2.85;;;10.30;99.90;;;;;;5038695;28;20500;-75
2023/02/21 11:05:18;;;;;;;14.55;2.88;;;10.50;99.90;;;;;;5035152;28;20040;-75
2023/02/21 11:08:01;;;;;;;16.23;3.22;;;10.60;99.90;;;;;;5023045;28;20056;-75
2023/02/21 11:10:41;;;;;;;18.60;3.47;;;10.70;99.90;;;;;;5038456;28;20562;-74
2023/02/21 11:13:09;;;;;;;14.15;3.17;;;10.70;99.90;;;;;;5039894;28;20052;-75
2023/02/21 11:15:35;;;;;;;13.70;3.17;;;10.70;99.90;;;;;;5039188;28;20138;-75
2023/02/21 11:18:04;;;;;;;16.20;2.78;;;10.80;99.90;;;;;;5039823;28;20032;-74
2023/02/21 11:20:30;;;;;;;14.90;2.80;;;10.70;99.90;;;;;;5041263;28;20056;-75
2023/02/21 11:22:55;;;;;;;12.77;2.55;;;10.60;99.90;;;;;;5015787;28;20025;-75
2023/02/21 11:25:21;;;;;;;17.42;2.95;;;10.70;99.90;;;;;;5037387;28;20026;-74
2023/02/21 11:28:04;;;;;;;17.48;3.47;;;10.80;99.90;;;;;;5038350;28;20040;-75
2023/02/21 11:30:39;;;;;;;13.73;2.63;;;10.80;99.90;;;;;;5035614;28;20022;-75
2023/02/21 11:33:07;;;;;;;16.02;2.33;;;10.90;99.90;;;;;;5035391;28;20048;-75
2023/02/21 11:35:46;;;;;;;12.30;2.50;;;10.70;99.90;;;;;;5039877;28;20029;-75
2023/02/21 11:38:31;;;;;;;16.00;3.55;;;10.70;99.90;;;;;;5035025;28;20037;-75
2023/02/21 11:40:57;;;;;;;13.48;2.33;;;10.80;99.90;;;;;;5040621;28;20044;-76
2023/02/21 11:43:29;;;;;;;15.05;2.75;;;10.80;99.90;;;;;;5038123;28;20021;-76
2023/02/21 11:46:40;;;;;;;12.13;2.40;;;10.80;99.90;;;;;;5024131;28;20029;-74
2023/02/21 11:49:15;;;;;;;10.63;2.50;;;10.70;99.90;;;;;;5041155;28;20504;-73
2023/02/21 11:51:55;;;;;;;13.02;2.42;;;10.80;99.90;;;;;;5042801;28;20037;-74
2023/02/21 11:54:25;;;;;;;11.70;2.88;;;10.80;99.90;;;;;;5041038;28;20022;-74
2023/02/21 11:57:18;;;;;;;13.35;2.63;;;10.90;99.90;;;;;;5024412;28;20044;-74
2023/02/21 12:00:06;;;;;;;11.20;1.88;;;10.90;99.90;;;;;;5023802;28;20053;-74
2023/02/21 12:03:01;;;;;;;13.48;2.33;;;10.80;99.90;;;;;;5042172;28;20056;-74
2023/02/21 12:05:54;;;;;;;13.07;2.55;;;10.70;99.90;;;;;;5046177;28;20037;-74
2023/02/21 12:08:45;;;;;;;8.70;2.20;;;10.60;99.90;;;;;;5046263;28;20021;-74
2023/02/21 12:11:14;;;;;;;12.10;2.45;;;10.50;99.90;;;;;;5043637;28;20033;-75
2023/02/21 12:13:52;;;;;;;11.73;2.05;;;10.40;99.90;;;;;;5023681;28;20025;-74
2023/02/21 12:16:48;;;;;;;11.68;2.40;;;10.40;99.90;;;;;;5041164;28;20115;-74
2023/02/21 12:19:43;;;;;;;11.77;2.03;;;10.30;99.90;;;;;;5042232;28;20037;-73
2023/02/21 12:22:22;;;;;;;14.60;2.63;;;10.40;99.90;;;;;;5044374;28;20044;-74
2023/02/21 12:25:16;;;;;;;11.00;2.33;;;10.30;99.90;;;;;;5040810;28;20060;-74
2023/02/21 12:28:00;;;;;;;8.73;2.30;;;10.20;99.90;;;;;;5040364;28;20104;-75
2023/02/21 12:30:41;;;;;;;7.68;2.40;;;10.20;99.90;;;;;;5040753;28;20044;-75
2023/02/21 12:33:40;;;;;;;5.88;2.08;;;10.10;99.90;;;;;;5026001;28;20045;-74
2023/02/21 12:36:41;;;;;;;7.30;2.20;;;10.10;99.90;;;;;;5024184;28;20564;-75
2023/02/21 12:39:21;;;;;;;8.17;2.53;;;10.10;99.90;;;;;;4996407;28;20042;-74
2023/02/21 12:42:05;;;;;;;5.53;2.00;;;10.10;99.90;;;;;;5043727;28;20029;-76
2023/02/21 12:44:40;;;;;;;8.45;2.17;;;10.10;99.90;;;;;;5042251;28;20112;-74
2023/02/21 12:47:15;;;;;;;9.85;2.75;;;10.00;99.90;;;;;;5041871;28;20150;-75
2023/02/21 12:49:48;;;;;;;9.55;2.08;;;9.90;99.90;;;;;;5041882;28;20112;-75
2023/02/21 12:52:28;;;;;;;9.45;2.28;;;10.00;99.90;;;;;;5022775;28;20049;-75
2023/02/21 12:55:19;;;;;;;9.00;2.35;;;10.00;99.90;;;;;;5040963;28;20034;-76
2023/02/21 12:57:50;;;;;;;4.25;1.70;;;10.00;99.90;;;;;;5021607;28;20497;-75
2023/02/21 13:00:21;;;;;;;7.80;2.03;;;10.00;99.90;;;;;;5023529;28;20405;-75
2023/02/21 13:03:08;;;;;;;10.80;2.40;;;9.90;99.90;;;;;;5040843;28;20401;-74
2023/02/21 13:05:47;;;;;;;15.52;3.58;;;9.80;99.90;;;;;;5040726;28;20112;-75
2023/02/21 13:08:29;;;;;;;10.55;2.35;;;9.80;99.90;;;;;;5039923;28;20027;-75
2023/02/21 13:11:17;;;;;;;9.73;2.33;;;9.80;99.90;;;;;;5039987;28;20083;-74
2023/02/21 13:13:43;;;;;;;6.40;2.28;;;9.80;99.90;;;;;;5041534;28;20021;-77
2023/02/21 13:16:11;;;;;;;9.70;2.13;;;9.80;99.90;;;;;;5038935;28;20386;-74
2023/02/21 13:18:49;;;;;;;11.00;2.75;;;9.90;99.90;;;;;;5040462;28;20041;-74
2023/02/21 13:21:18;;;;;;;10.25;2.45;;;9.90;99.90;;;;;;5042645;28;20087;-75
2023/02/21 13:27:20;;;;;;;8.77;2.05;;;9.90;99.90;;;;;;5041467;28;20025;-74
2023/02/21 13:29:48;;;;;;;5.45;1.95;;;9.90;99.90;;;;;;4984613;28;20128;-74
2023/02/21 13:32:18;;;;;;;11.77;2.78;;;9.90;99.90;;;;;;5037325;28;20029;-74
2023/02/21 13:35:08;;;;;;;10.60;2.87;;;9.90;99.90;;;;;;5039476;28;20421;-74
2023/02/21 13:37:42;;;;;;;8.32;2.20;;;9.90;99.90;;;;;;5040844;28;20632;-75
2023/02/21 13:40:42;;;;;;;8.95;1.92;;;9.90;99.90;;;;;;5043959;28;20094;-75
2023/02/21 13:43:44;;;;;;;7.60;2.05;;;10.00;99.90;;;;;;5039207;28;20025;-75
2023/02/21 13:46:29;;;;;;;9.35;2.33;;;10.00;99.90;;;;;;5037587;28;20037;-75
2023/02/21 13:49:32;;;;;;;11.20;2.15;;;10.00;99.90;;;;;;5042912;28;20029;-75
2023/02/21 13:52:23;;;;;;;7.63;1.90;;;9.90;99.90;;;;;;5039704;28;20083;-75
2023/02/21 13:55:19;;;;;;;9.68;2.22;;;9.80;99.90;;;;;;5041561;28;20566;-75
2023/02/21 13:58:08;;;;;;;8.80;1.90;;;9.80;99.90;;;;;;5043546;28;20036;-75
2023/02/21 14:00:33;;;;;;;14.90;2.78;;;9.70;99.90;;;;;;5039611;28;20035;-75
2023/02/21 14:03:08;;;;;;;9.80;2.03;;;9.70;99.90;;;;;;5039304;28;20120;-75
2023/02/21 14:05:49;;;;;;;11.48;2.45;;;9.70;99.90;;;;;;5046653;28;20124;-75
2023/02/21 14:08:39;;;;;;;9.70;2.10;;;9.80;99.90;;;;;;5041522;28;20030;-75
2023/02/21 14:11:05;;;;;;;11.55;1.90;;;9.70;99.90;;;;;;5039724;28;20021;-75
2023/02/21 14:13:46;;;;;;;11.75;2.05;;;9.70;99.90;;;;;;5019558;28;20029;-74
2023/02/21 14:16:12;;;;;;;8.07;1.63;;;9.60;99.90;;;;;;5040822;28;20025;-76
2023/02/21 14:18:37;;;;;;;6.90;2.00;;;9.60;99.90;;;;;;5038707;28;20070;-74
2023/02/21 14:21:33;;;;;;;12.63;2.40;;;9.60;99.90;;;;;;5036757;28;20468;-75
2023/02/21 14:24:08;;;;;;;10.32;1.77;;;9.70;99.90;;;;;;5037339;28;20111;-75
2023/02/21 14:26:37;;;;;;;6.93;1.60;;;9.60;99.90;;;;;;5038897;28;20116;-75
2023/02/21 14:29:05;;;;;;;7.55;1.48;;;9.60;99.90;;;;;;5037881;28;20108;-75
2023/02/21 14:31:57;;;;;;;9.50;1.70;;;9.60;99.90;;;;;;5041544;28;20023;-75
2023/02/21 14:34:33;;;;;;;7.53;2.58;;;9.50;99.90;;;;;;5042099;28;20057;-75
2023/02/21 14:37:29;;;;;;;7.47;2.05;;;9.40;99.90;;;;;;5041839;28;20030;-75
2023/02/21 14:40:04;;;;;;;9.68;2.53;;;9.40;99.90;;;;;;5038735;28;20040;-75
2023/02/21 14:42:42;;;;;;;10.00;1.63;;;9.40;99.90;;;;;;5041900;28;20539;-75
2023/02/21 14:45:12;;;;;;;6.90;1.38;;;9.40;99.90;;;;;;5039363;28;20033;-75
2023/02/21 14:47:56;;;;;;;11.25;2.22;;;9.40;99.90;;;;;;5039234;28;20056;-75
2023/02/21 14:50:47;;;;;;;8.75;1.90;;;9.40;99.90;;;;;;5041818;28;20031;-75
2023/02/21 14:53:40;;;;;;;5.90;1.37;;;9.40;99.90;;;;;;5040856;28;20513;-75
2023/02/21 14:56:15;;;;;;;6.57;1.60;;;9.50;99.90;;;;;;5039629;28;20143;-75
2023/02/21 14:59:30;;;;;;;9.65;1.52;;;9.50;99.90;;;;;;5040421;28;20056;-75
2023/02/21 15:02:28;;;;;;;5.63;1.23;;;9.50;99.90;;;;;;5036758;28;20037;-75
2023/02/21 15:05:09;;;;;;;8.68;1.42;;;9.50;99.90;;;;;;5040135;28;20033;-75
2023/02/21 15:07:46;;;;;;;6.90;1.92;;;9.40;99.90;;;;;;5038100;28;20586;-75
2023/02/21 15:10:25;;;;;;;11.23;2.00;;;9.30;99.90;;;;;;5024023;28;20075;-75
2023/02/21 15:13:00;;;;;;;6.40;1.52;;;9.30;99.90;;;;;;5036964;28;20025;-74
2023/02/21 15:15:33;;;;;;;8.20;1.45;;;9.40;99.90;;;;;;5036343;28;20523;-75
2023/02/21 15:18:06;;;;;;;6.68;1.83;;;9.40;99.90;;;;;;5040141;28;20573;-74
2023/02/21 15:20:38;;;;;;;4.25;1.67;;;9.40;99.90;;;;;;5041999;28;20088;-74
2023/02/21 15:23:18;;;;;;;6.57;1.42;;;9.50;99.90;;;;;;5035801;28;20033;-74
2023/02/21 15:25:53;;;;;;;4.72;1.15;;;9.30;99.90;;;;;;5037857;28;20029;-75
2023/02/21 15:28:28;;;;;;;6.00;1.27;;;9.30;99.90;;;;;;5037509;28;20041;-74
2023/02/21 15:31:09;;;;;;;5.68;1.25;;;9.30;99.90;;;;;;5039472;28;20036;-75
2023/02/21 15:33:36;;;;;;;;;;;9.20;99.90;;;;;;5035257;28;20040;-74
2023/02/21 15:36:15;;;;;;;4.55;1.90;;;9.20;99.90;;;;;;5036702;28;19916;-75
2023/02/21 15:39:11;;;;;;;3.15;1.33;;;9.20;99.90;;;;;;5037321;28;20059;-75